createdAt,value
2019-04-10T04:57:24.527Z,14.65
2019-04-10T04:58:22.272Z,7.45
2019-04-10T04:59:21.478Z,7.36
2019-04-10T05:00:21.591Z,7.35
2019-04-10T05:01:21.454Z,7.37
2019-04-10T05:02:21.986Z,7.39
2019-04-10T05:03:22.726Z,7.30
2019-04-10T05:04:22.812Z,7.18
2019-04-10T05:05:21.464Z,7.23
2019-04-10T05:06:22.272Z,7.29
2019-04-10T05:07:22.498Z,7.33
2019-04-10T05:08:21.832Z,7.49
2019-04-10T05:09:31.200Z,7.57
2019-04-10T05:10:21.541Z,7.41
2019-04-10T05:11:22.318Z,7.32
2019-04-10T05:12:23.512Z,7.36
2019-04-10T05:13:22.246Z,7.40
2019-04-10T05:14:21.725Z,7.51
2019-04-10T05:15:21.671Z,7.50
2019-04-10T05:16:22.511Z,7.52
2019-04-10T05:17:22.177Z,7.66
2019-04-10T05:18:21.812Z,7.70
2019-04-10T05:19:21.621Z,7.71
2019-04-10T05:20:21.604Z,7.61
2019-04-10T05:21:21.612Z,7.56
2019-04-10T05:22:22.311Z,7.50
2019-04-10T05:23:22.394Z,7.54
2019-04-10T05:24:22.067Z,7.53
2019-04-10T05:25:21.807Z,7.51
2019-04-10T05:26:22.709Z,7.48
2019-04-10T05:27:22.614Z,7.50
2019-04-10T05:28:24.247Z,7.48
2019-04-10T05:29:21.754Z,7.55
2019-04-10T05:30:21.575Z,7.56
2019-04-10T05:31:21.792Z,7.66
2019-04-10T05:32:21.726Z,7.68
2019-04-10T05:33:22.557Z,7.74
2019-04-10T05:34:22.017Z,7.69
2019-04-10T05:35:21.665Z,7.66
2019-04-10T05:36:21.672Z,7.66
2019-04-10T05:37:21.784Z,7.68
2019-04-10T05:38:22.593Z,7.71
2019-04-10T05:39:22.477Z,7.54
2019-04-10T05:40:22.004Z,7.51
2019-04-10T05:41:23.262Z,7.42
2019-04-10T05:42:22.600Z,7.50
2019-04-10T05:43:22.033Z,7.62
2019-04-10T05:44:21.671Z,7.53
2019-04-10T05:45:21.851Z,7.55
2019-04-10T05:46:22.975Z,7.53
2019-04-10T05:47:21.724Z,7.52
2019-04-10T05:48:23.492Z,7.57
2019-04-10T05:49:22.531Z,7.59
2019-04-10T05:50:21.930Z,7.78
2019-04-10T05:51:21.826Z,7.94
2019-04-10T05:52:22.349Z,8.02
2019-04-10T05:53:22.554Z,8.07
2019-04-10T05:54:22.574Z,8.00
2019-04-10T05:55:22.608Z,7.86
2019-04-10T05:56:22.499Z,7.72
2019-04-10T05:57:21.815Z,7.79
2019-04-10T05:58:21.872Z,7.81
2019-04-10T05:59:21.869Z,7.87
2019-04-10T06:00:22.906Z,7.71
2019-04-10T06:01:33.266Z,7.64
2019-04-10T06:02:22.980Z,7.71
2019-04-10T06:03:22.730Z,7.70
2019-04-10T06:04:22.131Z,7.63
2019-04-10T06:05:22.352Z,7.60
2019-04-10T06:06:22.235Z,7.57
2019-04-10T06:07:22.982Z,7.53
2019-04-10T06:08:21.828Z,7.60
2019-04-10T06:09:22.735Z,7.66
2019-04-10T06:10:21.784Z,7.47
2019-04-10T06:11:22.548Z,7.47
2019-04-10T06:12:22.317Z,7.57
2019-04-10T06:13:22.814Z,7.53
2019-04-10T06:14:22.098Z,7.54
2019-04-10T06:15:23.190Z,7.68
2019-04-10T06:16:21.871Z,7.70
2019-04-10T06:17:22.684Z,7.59
2019-04-10T06:18:22.868Z,7.67
2019-04-10T06:19:22.079Z,7.63
2019-04-10T06:20:25.111Z,7.63
2019-04-10T06:21:23.001Z,7.71
2019-04-10T06:22:22.798Z,7.68
2019-04-10T06:23:21.922Z,7.77
2019-04-10T06:24:22.445Z,7.82
2019-04-10T06:25:24.787Z,7.90
2019-04-10T06:26:21.982Z,7.71
2019-04-10T06:27:22.088Z,7.74
2019-04-10T06:28:24.206Z,7.72
2019-04-10T06:29:21.806Z,7.76
2019-04-10T06:30:21.841Z,7.78
2019-04-10T06:31:22.893Z,7.90
2019-04-10T06:32:21.742Z,7.84
2019-04-10T06:33:22.224Z,7.83
2019-04-10T06:34:23.293Z,7.77
2019-04-10T06:35:22.062Z,7.79
2019-04-10T06:36:22.012Z,7.81
2019-04-10T06:37:22.058Z,7.85
2019-04-10T06:38:22.921Z,7.79
2019-04-10T06:39:21.790Z,7.80
2019-04-10T06:40:24.200Z,7.75
2019-04-10T06:41:22.259Z,7.70
2019-04-10T06:42:22.542Z,7.53
2019-04-10T06:43:22.572Z,7.51
2019-04-10T06:44:21.854Z,7.56
2019-04-10T06:45:21.915Z,7.66
2019-04-10T06:46:22.219Z,7.67
2019-04-10T06:47:22.316Z,7.64
2019-04-10T06:49:03.357Z,7.64
2019-04-10T06:50:04.347Z,7.69
2019-04-10T06:51:03.997Z,7.76
2019-04-10T06:52:03.249Z,7.90
2019-04-10T06:53:04.157Z,7.89
2019-04-10T06:54:08.081Z,8.05
2019-04-10T06:55:03.335Z,8.07
2019-04-10T06:56:03.317Z,7.89
2019-04-10T06:57:03.300Z,7.85
2019-04-10T06:58:03.419Z,7.84
2019-04-10T06:59:04.483Z,7.86
2019-04-10T07:00:04.230Z,7.87
2019-04-10T07:01:04.166Z,7.88
2019-04-10T07:02:16.714Z,7.86
2019-04-10T07:03:03.518Z,7.88
2019-04-10T07:04:07.319Z,7.97
2019-04-10T07:05:07.451Z,8.02
2019-04-10T07:06:09.700Z,8.09
2019-04-10T07:07:08.870Z,8.22
2019-04-10T07:08:12.182Z,8.32
2019-04-10T07:09:03.466Z,8.21
2019-04-10T07:10:05.521Z,8.30
2019-04-10T07:11:08.371Z,8.38
2019-04-10T07:12:04.713Z,8.46
2019-04-10T07:13:06.339Z,8.27
2019-04-10T07:14:03.345Z,8.12
2019-04-10T07:15:04.203Z,8.26
2019-04-10T07:16:04.197Z,8.39
2019-04-10T07:17:06.728Z,8.47
2019-04-10T07:18:03.497Z,8.53
2019-04-10T07:19:04.777Z,8.48
2019-04-10T07:20:03.491Z,8.37
2019-04-10T07:21:04.211Z,8.13
2019-04-10T07:22:08.859Z,8.10
2019-04-10T07:23:03.433Z,8.24
2019-04-10T07:24:06.586Z,8.43
2019-04-10T07:25:04.653Z,8.41
2019-04-10T07:26:03.785Z,8.39
2019-04-10T07:27:04.865Z,8.29
2019-04-10T07:28:07.382Z,8.08
2019-04-10T07:29:04.599Z,8.06
2019-04-10T07:30:03.646Z,8.31
2019-04-10T07:31:07.248Z,8.49
2019-04-10T07:32:07.795Z,8.48
2019-04-10T07:33:03.518Z,8.48
2019-04-10T07:34:03.412Z,8.40
2019-04-10T07:35:03.561Z,8.38
2019-04-10T07:36:08.500Z,8.42
2019-04-10T07:37:03.451Z,8.45
2019-04-10T07:38:03.538Z,8.36
2019-04-10T07:39:03.597Z,8.27
2019-04-10T07:40:04.608Z,8.31
2019-04-10T07:41:06.298Z,8.33
2019-04-10T07:42:04.136Z,8.28
2019-04-10T07:43:04.202Z,8.43
2019-04-10T07:44:03.737Z,8.35
2019-04-10T07:45:03.464Z,8.35
2019-04-10T07:46:03.467Z,8.28
2019-04-10T07:47:03.353Z,8.31
2019-04-10T07:48:04.435Z,8.39
2019-04-10T07:49:03.404Z,8.48
2019-04-10T07:50:04.792Z,8.52
2019-04-10T07:51:03.552Z,8.39
2019-04-10T07:52:03.720Z,8.42
2019-04-10T07:53:03.517Z,8.61
2019-04-10T07:54:04.063Z,8.44
2019-04-10T07:55:04.411Z,8.56
2019-04-10T07:56:09.025Z,8.80
2019-04-10T07:57:04.319Z,8.88
2019-04-10T07:58:04.857Z,8.83
2019-04-10T07:59:03.599Z,8.71
2019-04-10T08:00:03.591Z,8.80
2019-04-10T08:01:03.514Z,9.01
2019-04-10T08:02:05.959Z,8.90
2019-04-10T08:03:04.164Z,8.66
2019-04-10T08:04:04.153Z,8.59
2019-04-10T08:05:04.340Z,8.63
2019-04-10T08:06:03.620Z,8.69
2019-04-10T08:07:03.407Z,8.79
2019-04-10T08:08:03.528Z,8.66
2019-04-10T08:09:04.467Z,8.81
2019-04-10T08:10:03.694Z,8.91
2019-04-10T08:11:05.047Z,9.01
2019-04-10T08:12:03.644Z,9.11
2019-04-10T08:13:04.570Z,8.97
2019-04-10T08:14:06.096Z,9.08
2019-04-10T08:15:05.001Z,9.09
2019-04-10T08:16:03.467Z,8.96
2019-04-10T08:17:03.762Z,9.04
2019-04-10T08:18:04.596Z,9.10
2019-04-10T08:19:04.095Z,9.10
2019-04-10T08:20:03.779Z,9.07
2019-04-10T08:21:03.480Z,8.90
2019-04-10T08:22:03.739Z,8.72
2019-04-10T08:23:03.765Z,8.69
2019-04-10T08:24:03.758Z,8.64
2019-04-10T08:25:04.395Z,8.75
2019-04-10T08:26:03.668Z,8.82
2019-04-10T08:27:03.639Z,8.69
2019-04-10T08:28:03.565Z,8.60
2019-04-10T08:29:03.700Z,8.56
2019-04-10T08:30:03.549Z,8.46
2019-04-10T08:31:04.441Z,8.61
2019-04-10T08:32:03.683Z,8.63
2019-04-10T08:33:04.807Z,8.67
2019-04-10T08:34:03.512Z,8.85
2019-04-10T08:35:04.565Z,8.89
2019-04-10T08:36:03.688Z,8.93
2019-04-10T08:37:03.862Z,8.88
2019-04-10T08:38:03.551Z,8.72
2019-04-10T08:39:04.596Z,8.57
2019-04-10T08:40:03.705Z,8.59
2019-04-10T08:41:03.567Z,8.64
2019-04-10T08:42:03.647Z,8.56
2019-04-10T08:43:04.158Z,8.66
2019-04-10T08:44:04.426Z,8.72
2019-04-10T08:45:03.578Z,8.61
2019-04-10T08:46:03.609Z,8.72
2019-04-10T08:47:03.509Z,8.87
2019-04-10T08:48:03.750Z,8.83
2019-04-10T08:49:03.651Z,8.79
2019-04-10T08:50:04.180Z,9.02
2019-04-10T08:51:03.691Z,9.11
2019-04-10T08:52:04.836Z,9.24
2019-04-10T08:53:04.110Z,9.21
2019-04-10T08:54:03.802Z,9.20
2019-04-10T08:55:03.861Z,9.18
2019-04-10T08:56:04.490Z,9.27
2019-04-10T08:57:03.695Z,9.02
2019-04-10T08:58:03.616Z,9.04
2019-04-10T08:59:03.993Z,9.02
2019-04-10T09:00:04.566Z,8.99
2019-04-10T09:01:03.635Z,8.92
2019-04-10T09:02:04.010Z,8.80
2019-04-10T09:03:03.620Z,8.76
2019-04-10T09:04:03.706Z,8.84
2019-04-10T09:05:03.720Z,8.79
2019-04-10T09:06:03.855Z,8.80
2019-04-10T09:07:05.016Z,8.91
2019-04-10T09:08:04.532Z,8.88
2019-04-10T09:09:03.708Z,8.91
2019-04-10T09:10:03.883Z,9.07
2019-04-10T09:11:03.708Z,8.93
2019-04-10T09:12:03.696Z,9.10
2019-04-10T09:13:04.330Z,8.64
2019-04-10T09:14:03.737Z,8.55
2019-04-10T09:15:03.711Z,8.67
2019-04-10T09:16:04.538Z,8.70
2019-04-10T09:17:03.896Z,9.04
2019-04-10T09:18:04.073Z,9.04
2019-04-10T09:19:03.706Z,9.10
2019-04-10T09:20:04.531Z,9.14
2019-04-10T09:21:04.920Z,8.81
2019-04-10T09:22:03.793Z,8.98
2019-04-10T09:23:26.485Z,9.28
2019-04-10T09:24:04.708Z,9.33
2019-04-10T09:25:03.703Z,9.43
2019-04-10T09:26:03.867Z,9.55
2019-04-10T09:27:04.676Z,9.62
2019-04-10T09:28:04.315Z,9.58
2019-04-10T09:29:04.600Z,9.83
2019-04-10T09:30:04.602Z,9.82
2019-04-10T09:31:03.602Z,9.57
2019-04-10T09:32:04.414Z,9.20
2019-04-10T09:33:15.713Z,9.20
2019-04-10T09:34:03.683Z,9.51
2019-04-10T09:35:04.478Z,9.53
2019-04-10T09:36:04.709Z,9.38
2019-04-10T09:37:03.960Z,9.01
2019-04-10T09:38:04.217Z,8.89
2019-04-10T09:39:03.635Z,9.14
2019-04-10T09:40:03.690Z,9.10
2019-04-10T09:41:03.820Z,9.28
2019-04-10T09:42:03.757Z,9.31
2019-04-10T09:43:05.007Z,9.12
2019-04-10T09:44:04.534Z,9.16
2019-04-10T09:45:04.674Z,9.30
2019-04-10T09:46:04.257Z,9.40
2019-04-10T09:47:03.930Z,9.45
2019-04-10T09:48:04.253Z,9.34
2019-04-10T09:49:05.401Z,9.29
2019-04-10T09:50:03.959Z,9.19
2019-04-10T09:51:03.661Z,9.34
2019-04-10T09:52:04.728Z,9.16
2019-04-10T09:53:04.155Z,9.21
2019-04-10T09:54:03.810Z,9.44
2019-04-10T09:55:03.740Z,9.66
2019-04-10T09:56:03.731Z,9.54
2019-04-10T09:57:03.673Z,9.75
2019-04-10T09:58:03.639Z,9.57
2019-04-10T09:59:03.727Z,9.83
2019-04-10T10:00:05.217Z,9.97
2019-04-10T10:01:04.781Z,10.05
2019-04-10T10:02:03.851Z,10.13
2019-04-10T10:03:03.652Z,10.05
2019-04-10T10:04:04.730Z,9.73
2019-04-10T10:05:04.423Z,9.76
2019-04-10T10:06:03.739Z,9.79
2019-04-10T10:07:04.006Z,9.64
2019-04-10T10:08:04.345Z,9.56
2019-04-10T10:09:04.115Z,9.49
2019-04-10T10:10:04.275Z,9.63
2019-04-10T10:11:04.050Z,9.57
2019-04-10T10:12:03.843Z,9.36
2019-04-10T10:13:03.758Z,9.22
2019-04-10T10:14:04.113Z,9.20
2019-04-10T10:15:03.779Z,9.24
2019-04-10T10:16:04.150Z,9.50
2019-04-10T10:17:04.371Z,9.49
2019-04-10T10:18:04.004Z,9.39
2019-04-10T10:19:03.935Z,9.41
2019-04-10T10:20:04.049Z,9.23
2019-04-10T10:21:04.185Z,9.44
2019-04-10T10:22:04.612Z,9.78
2019-04-10T10:23:03.987Z,9.86
2019-04-10T10:24:04.537Z,9.51
2019-04-10T10:25:04.826Z,9.28
2019-04-10T10:26:03.963Z,9.50
2019-04-10T10:27:05.253Z,9.54
2019-04-10T10:28:04.971Z,9.54
2019-04-10T10:29:04.837Z,9.54
2019-04-10T10:30:03.911Z,9.39
2019-04-10T10:31:04.107Z,9.71
2019-04-10T10:32:04.643Z,9.93
2019-04-10T10:33:04.074Z,10.18
2019-04-10T10:34:04.001Z,10.25
2019-04-10T10:35:05.004Z,10.15
2019-04-10T10:36:05.331Z,10.30
2019-04-10T10:37:04.001Z,9.95
2019-04-10T10:38:05.304Z,9.94
2019-04-10T10:39:10.576Z,9.77
2019-04-10T10:40:04.099Z,9.75
2019-04-10T10:41:04.599Z,9.69
2019-04-10T10:42:05.180Z,9.76
2019-04-10T10:43:04.458Z,10.03
2019-04-10T10:44:04.808Z,10.12
2019-04-10T10:45:04.783Z,9.99
2019-04-10T10:46:04.082Z,9.91
2019-04-10T10:47:04.166Z,9.90
2019-04-10T10:48:07.209Z,9.91
2019-04-10T10:49:04.250Z,9.91
2019-04-10T10:50:04.608Z,9.82
2019-04-10T10:51:04.591Z,9.81
2019-04-10T10:52:04.061Z,10.02
2019-04-10T10:53:04.061Z,10.17
2019-04-10T10:54:05.317Z,10.11
2019-04-10T10:55:03.956Z,9.89
2019-04-10T10:56:04.281Z,9.86
2019-04-10T10:57:03.947Z,9.94
2019-04-10T10:58:03.932Z,9.97
2019-04-10T10:59:05.002Z,10.12
2019-04-10T11:00:04.421Z,10.10
2019-04-10T11:01:05.278Z,10.04
2019-04-10T11:02:04.417Z,9.95
2019-04-10T11:03:04.111Z,10.13
2019-04-10T11:04:04.712Z,10.48
2019-04-10T11:05:06.937Z,10.53
2019-04-10T11:06:04.113Z,10.73
2019-04-10T11:07:04.689Z,11.02
2019-04-10T11:08:05.353Z,11.09
2019-04-10T11:09:04.198Z,10.75
2019-04-10T11:10:04.326Z,11.10
2019-04-10T11:11:04.351Z,10.82
2019-04-10T11:12:06.799Z,10.57
2019-04-10T11:13:04.307Z,10.50
2019-04-10T11:14:04.709Z,10.32
2019-04-10T11:15:04.055Z,10.32
2019-04-10T11:16:05.685Z,10.45
2019-04-10T11:17:05.297Z,10.72
2019-04-10T11:18:04.295Z,10.86
2019-04-10T11:19:04.855Z,11.21
2019-04-10T11:20:04.229Z,11.31
2019-04-10T11:21:08.014Z,11.39
2019-04-10T11:22:05.014Z,11.35
2019-04-10T11:23:04.250Z,10.90
2019-04-10T11:24:04.667Z,11.21
2019-04-10T11:25:04.112Z,10.94
2019-04-10T11:26:04.673Z,11.05
2019-04-10T11:27:04.156Z,11.34
2019-04-10T11:28:04.076Z,11.47
2019-04-10T11:29:04.013Z,11.41
2019-04-10T11:30:05.354Z,11.41
2019-04-10T11:31:04.617Z,11.45
2019-04-10T11:32:04.309Z,11.86
2019-04-10T11:33:04.147Z,11.55
2019-04-10T11:34:04.253Z,11.55
2019-04-10T11:35:04.566Z,11.34
2019-04-10T11:36:04.056Z,11.63
2019-04-10T11:37:19.304Z,11.89
2019-04-10T11:38:05.798Z,11.99
2019-04-10T11:39:12.093Z,11.93
2019-04-10T11:40:05.146Z,11.75
2019-04-10T11:41:07.199Z,11.51
2019-04-10T11:42:04.240Z,11.81
2019-04-10T11:43:05.300Z,11.39
2019-04-10T11:44:04.387Z,11.44
2019-04-10T11:45:06.037Z,11.78
2019-04-10T11:46:04.231Z,12.00
2019-04-10T11:47:06.331Z,11.95
2019-04-10T11:48:04.435Z,11.83
2019-04-10T11:49:04.999Z,12.17
2019-04-10T11:50:09.110Z,12.16
2019-04-10T11:51:04.101Z,12.13
2019-04-10T11:52:05.675Z,11.95
2019-04-10T11:53:04.506Z,12.24
2019-04-10T11:54:07.713Z,11.94
2019-04-10T11:55:10.561Z,11.73
2019-04-10T11:57:06.330Z,11.41
2019-04-10T11:58:05.575Z,11.70
2019-04-10T11:59:07.624Z,11.87
2019-04-10T12:00:08.255Z,12.02
2019-04-10T12:01:07.846Z,11.70
2019-04-10T12:02:06.641Z,11.79
2019-04-10T12:03:04.756Z,11.92
2019-04-10T12:04:06.694Z,11.71
2019-04-10T12:05:10.996Z,11.36
2019-04-10T12:06:04.848Z,11.67
2019-04-10T12:07:05.843Z,12.04
2019-04-10T12:09:29.981Z,12.35
2019-04-10T12:12:04.162Z,12.09
2019-04-10T12:13:04.213Z,11.65
2019-04-10T12:14:04.972Z,11.90
2019-04-10T12:15:04.263Z,11.85
2019-04-10T12:16:05.137Z,11.81
2019-04-10T12:17:05.383Z,11.27
2019-04-10T12:18:04.474Z,11.12
2019-04-10T12:19:04.723Z,11.37
2019-04-10T12:20:04.814Z,11.49
2019-04-10T12:21:05.275Z,11.73
2019-04-10T12:22:05.336Z,11.48
2019-04-10T12:23:05.021Z,11.23
2019-04-10T12:24:04.059Z,11.00
